sensor_id;sensor_type;location;lat;lon;timestamp;P1;durP1;ratioP1;P2;durP2;ratioP2
55114;SDS011;41010;53.252;5.786;2023-06-22T00:00:53;10.10;;;5.47;;
55114;SDS011;41010;53.252;5.786;2023-06-22T00:03:22;7.78;;;5.60;;
55114;SDS011;41010;53.252;5.786;2023-06-22T00:05:50;9.05;;;6.43;;
55114;SDS011;41010;53.252;5.786;2023-06-22T00:08:18;11.07;;;7.10;;
55114;SDS011;41010;53.252;5.786;2023-06-22T00:10:45;10.63;;;7.63;;
55114;SDS011;41010;53.252;5.786;2023-06-22T00:13:13;11.93;;;6.68;;
55114;SDS011;41010;53.252;5.786;2023-06-22T00:15:43;18.33;;;8.27;;
55114;SDS011;41010;53.252;5.786;2023-06-22T00:18:11;11.65;;;8.73;;
55114;SDS011;41010;53.252;5.786;2023-06-22T00:20:39;14.45;;;9.20;;
55114;SDS011;41010;53.252;5.786;2023-06-22T00:23:06;15.50;;;8.93;;
55114;SDS011;41010;53.252;5.786;2023-06-22T00:25:34;11.23;;;8.43;;
55114;SDS011;41010;53.252;5.786;2023-06-22T00:28:01;16.63;;;9.65;;
55114;SDS011;41010;53.252;5.786;2023-06-22T00:30:30;15.90;;;10.07;;
55114;SDS011;41010;53.252;5.786;2023-06-22T00:32:58;18.05;;;10.55;;
55114;SDS011;41010;53.252;5.786;2023-06-22T00:35:26;15.63;;;9.70;;
55114;SDS011;41010;53.252;5.786;2023-06-22T00:37:54;12.93;;;9.32;;
55114;SDS011;41010;53.252;5.786;2023-06-22T00:40:25;14.52;;;9.80;;
55114;SDS011;41010;53.252;5.786;2023-06-22T00:42:53;19.02;;;9.68;;
55114;SDS011;41010;53.252;5.786;2023-06-22T00:45:21;11.90;;;9.10;;
55114;SDS011;41010;53.252;5.786;2023-06-22T00:47:49;13.65;;;9.35;;
55114;SDS011;41010;53.252;5.786;2023-06-22T00:50:19;13.75;;;9.57;;
55114;SDS011;41010;53.252;5.786;2023-06-22T00:52:48;13.95;;;9.45;;
55114;SDS011;41010;53.252;5.786;2023-06-22T00:55:15;18.05;;;9.50;;
55114;SDS011;41010;53.252;5.786;2023-06-22T00:57:43;12.50;;;9.18;;
55114;SDS011;41010;53.252;5.786;2023-06-22T01:00:11;10.32;;;8.88;;
55114;SDS011;41010;53.252;5.786;2023-06-22T01:02:43;20.05;;;9.00;;
55114;SDS011;41010;53.252;5.786;2023-06-22T01:05:12;11.90;;;8.73;;
55114;SDS011;41010;53.252;5.786;2023-06-22T01:07:42;12.43;;;8.93;;
55114;SDS011;41010;53.252;5.786;2023-06-22T01:10:14;20.05;;;9.38;;
55114;SDS011;41010;53.252;5.786;2023-06-22T01:12:44;17.48;;;9.70;;
55114;SDS011;41010;53.252;5.786;2023-06-22T01:15:13;15.65;;;8.48;;
55114;SDS011;41010;53.252;5.786;2023-06-22T01:17:42;16.98;;;8.50;;
55114;SDS011;41010;53.252;5.786;2023-06-22T01:20:10;11.13;;;8.52;;
55114;SDS011;41010;53.252;5.786;2023-06-22T01:22:45;14.55;;;8.77;;
55114;SDS011;41010;53.252;5.786;2023-06-22T01:27:40;16.35;;;8.40;;
55114;SDS011;41010;53.252;5.786;2023-06-22T01:30:12;15.45;;;9.68;;
55114;SDS011;41010;53.252;5.786;2023-06-22T01:32:40;14.68;;;9.30;;
55114;SDS011;41010;53.252;5.786;2023-06-22T01:35:08;13.00;;;10.25;;
55114;SDS011;41010;53.252;5.786;2023-06-22T01:37:36;13.38;;;9.75;;
55114;SDS011;41010;53.252;5.786;2023-06-22T01:40:04;15.20;;;10.23;;
55114;SDS011;41010;53.252;5.786;2023-06-22T01:42:31;14.07;;;9.32;;
55114;SDS011;41010;53.252;5.786;2023-06-22T01:44:59;10.25;;;9.00;;
55114;SDS011;41010;53.252;5.786;2023-06-22T01:47:28;20.15;;;9.30;;
55114;SDS011;41010;53.252;5.786;2023-06-22T01:49:55;15.93;;;8.07;;
55114;SDS011;41010;53.252;5.786;2023-06-22T01:52:23;9.73;;;7.15;;
55114;SDS011;41010;53.252;5.786;2023-06-22T01:54:50;16.08;;;6.65;;
55114;SDS011;41010;53.252;5.786;2023-06-22T01:57:17;8.57;;;6.28;;
55114;SDS011;41010;53.252;5.786;2023-06-22T01:59:47;7.38;;;5.50;;
55114;SDS011;41010;53.252;5.786;2023-06-22T02:02:16;9.45;;;6.40;;
55114;SDS011;41010;53.252;5.786;2023-06-22T02:04:46;7.07;;;6.05;;
55114;SDS011;41010;53.252;5.786;2023-06-22T02:07:15;10.70;;;6.43;;
55114;SDS011;41010;53.252;5.786;2023-06-22T02:09:44;9.07;;;6.80;;
55114;SDS011;41010;53.252;5.786;2023-06-22T02:12:12;9.73;;;6.53;;
55114;SDS011;41010;53.252;5.786;2023-06-22T02:14:40;9.95;;;6.45;;
55114;SDS011;41010;53.252;5.786;2023-06-22T02:17:08;11.38;;;7.22;;
55114;SDS011;41010;53.252;5.786;2023-06-22T02:19:36;8.30;;;7.35;;
55114;SDS011;41010;53.252;5.786;2023-06-22T02:22:05;9.65;;;7.72;;
55114;SDS011;41010;53.252;5.786;2023-06-22T02:24:32;13.88;;;7.35;;
55114;SDS011;41010;53.252;5.786;2023-06-22T02:27:00;14.45;;;7.47;;
55114;SDS011;41010;53.252;5.786;2023-06-22T02:29:27;9.68;;;7.40;;
55114;SDS011;41010;53.252;5.786;2023-06-22T02:31:55;11.07;;;8.48;;
55114;SDS011;41010;53.252;5.786;2023-06-22T02:34:22;11.82;;;8.05;;
55114;SDS011;41010;53.252;5.786;2023-06-22T02:36:50;14.75;;;8.88;;
55114;SDS011;41010;53.252;5.786;2023-06-22T02:39:20;11.35;;;9.23;;
55114;SDS011;41010;53.252;5.786;2023-06-22T02:41:47;12.73;;;9.63;;
55114;SDS011;41010;53.252;5.786;2023-06-22T02:44:15;19.58;;;9.20;;
55114;SDS011;41010;53.252;5.786;2023-06-22T02:46:43;13.05;;;9.40;;
55114;SDS011;41010;53.252;5.786;2023-06-22T02:49:10;12.13;;;9.30;;
55114;SDS011;41010;53.252;5.786;2023-06-22T02:51:38;22.05;;;9.82;;
55114;SDS011;41010;53.252;5.786;2023-06-22T02:54:05;17.52;;;9.38;;
55114;SDS011;41010;53.252;5.786;2023-06-22T02:56:34;19.02;;;10.02;;
55114;SDS011;41010;53.252;5.786;2023-06-22T02:59:02;13.85;;;8.82;;
55114;SDS011;41010;53.252;5.786;2023-06-22T03:01:29;13.50;;;9.07;;
55114;SDS011;41010;53.252;5.786;2023-06-22T03:04:02;34.03;;;9.20;;
55114;SDS011;41010;53.252;5.786;2023-06-22T03:06:30;13.05;;;8.80;;
55114;SDS011;41010;53.252;5.786;2023-06-22T03:08:58;19.73;;;8.55;;
55114;SDS011;41010;53.252;5.786;2023-06-22T03:11:25;11.35;;;8.77;;
55114;SDS011;41010;53.252;5.786;2023-06-22T03:13:54;14.70;;;8.95;;
55114;SDS011;41010;53.252;5.786;2023-06-22T03:16:21;22.92;;;9.50;;
55114;SDS011;41010;53.252;5.786;2023-06-22T03:18:49;18.83;;;8.90;;
55114;SDS011;41010;53.252;5.786;2023-06-22T03:21:16;12.20;;;8.75;;
55114;SDS011;41010;53.252;5.786;2023-06-22T03:23:43;15.55;;;7.95;;
55114;SDS011;41010;53.252;5.786;2023-06-22T03:26:10;18.02;;;8.07;;
55114;SDS011;41010;53.252;5.786;2023-06-22T03:28:38;14.52;;;8.63;;
55114;SDS011;41010;53.252;5.786;2023-06-22T03:31:06;15.02;;;9.45;;
55114;SDS011;41010;53.252;5.786;2023-06-22T03:33:33;15.63;;;9.27;;
55114;SDS011;41010;53.252;5.786;2023-06-22T03:36:01;28.20;;;9.52;;
55114;SDS011;41010;53.252;5.786;2023-06-22T03:38:28;15.98;;;8.73;;
55114;SDS011;41010;53.252;5.786;2023-06-22T03:40:55;18.77;;;9.18;;
55114;SDS011;41010;53.252;5.786;2023-06-22T03:43:23;13.45;;;9.82;;
55114;SDS011;41010;53.252;5.786;2023-06-22T03:45:50;13.00;;;9.30;;
55114;SDS011;41010;53.252;5.786;2023-06-22T03:48:18;15.98;;;7.80;;
55114;SDS011;41010;53.252;5.786;2023-06-22T03:50:46;9.63;;;8.18;;
55114;SDS011;41010;53.252;5.786;2023-06-22T03:53:13;14.65;;;8.27;;
55114;SDS011;41010;53.252;5.786;2023-06-22T03:55:45;17.48;;;8.40;;
55114;SDS011;41010;53.252;5.786;2023-06-22T03:58:14;11.55;;;7.35;;
55114;SDS011;41010;53.252;5.786;2023-06-22T04:00:43;9.30;;;7.13;;
55114;SDS011;41010;53.252;5.786;2023-06-22T04:03:10;12.90;;;7.07;;
55114;SDS011;41010;53.252;5.786;2023-06-22T04:05:39;19.38;;;7.22;;
55114;SDS011;41010;53.252;5.786;2023-06-22T04:08:06;16.48;;;8.23;;
55114;SDS011;41010;53.252;5.786;2023-06-22T04:10:34;10.63;;;8.13;;
55114;SDS011;41010;53.252;5.786;2023-06-22T04:13:01;28.30;;;8.07;;
55114;SDS011;41010;53.252;5.786;2023-06-22T04:15:28;10.90;;;8.73;;
55114;SDS011;41010;53.252;5.786;2023-06-22T04:17:56;20.88;;;8.80;;
55114;SDS011;41010;53.252;5.786;2023-06-22T04:20:23;11.88;;;8.80;;
55114;SDS011;41010;53.252;5.786;2023-06-22T04:22:53;13.55;;;9.20;;
55114;SDS011;41010;53.252;5.786;2023-06-22T04:25:20;10.55;;;8.65;;
55114;SDS011;41010;53.252;5.786;2023-06-22T04:27:48;10.63;;;9.18;;
55114;SDS011;41010;53.252;5.786;2023-06-22T04:30:16;11.32;;;9.20;;
55114;SDS011;41010;53.252;5.786;2023-06-22T04:32:43;11.63;;;9.43;;
55114;SDS011;41010;53.252;5.786;2023-06-22T04:35:10;11.70;;;9.65;;
55114;SDS011;41010;53.252;5.786;2023-06-22T04:37:41;12.10;;;9.65;;
55114;SDS011;41010;53.252;5.786;2023-06-22T04:40:09;13.93;;;10.88;;
55114;SDS011;41010;53.252;5.786;2023-06-22T04:42:39;16.92;;;11.35;;
55114;SDS011;41010;53.252;5.786;2023-06-22T04:45:18;18.65;;;11.70;;
55114;SDS011;41010;53.252;5.786;2023-06-22T04:47:45;17.63;;;11.50;;
55114;SDS011;41010;53.252;5.786;2023-06-22T04:50:13;17.77;;;11.68;;
55114;SDS011;41010;53.252;5.786;2023-06-22T04:52:40;21.10;;;12.50;;
55114;SDS011;41010;53.252;5.786;2023-06-22T04:55:08;20.63;;;12.55;;
55114;SDS011;41010;53.252;5.786;2023-06-22T04:57:36;17.48;;;12.43;;
55114;SDS011;41010;53.252;5.786;2023-06-22T05:00:05;16.48;;;10.48;;
55114;SDS011;41010;53.252;5.786;2023-06-22T05:02:37;17.13;;;11.77;;
55114;SDS011;41010;53.252;5.786;2023-06-22T05:05:05;17.83;;;12.30;;
55114;SDS011;41010;53.252;5.786;2023-06-22T05:07:32;18.90;;;12.95;;
55114;SDS011;41010;53.252;5.786;2023-06-22T05:10:00;17.27;;;11.82;;
55114;SDS011;41010;53.252;5.786;2023-06-22T05:12:27;21.90;;;11.75;;
55114;SDS011;41010;53.252;5.786;2023-06-22T05:14:56;18.15;;;12.35;;
55114;SDS011;41010;53.252;5.786;2023-06-22T05:17:23;14.25;;;10.40;;
55114;SDS011;41010;53.252;5.786;2023-06-22T05:19:51;16.75;;;10.75;;
55114;SDS011;41010;53.252;5.786;2023-06-22T05:22:18;16.27;;;10.60;;
55114;SDS011;41010;53.252;5.786;2023-06-22T05:24:46;14.32;;;9.15;;
55114;SDS011;41010;53.252;5.786;2023-06-22T05:27:13;13.30;;;9.38;;
55114;SDS011;41010;53.252;5.786;2023-06-22T05:29:40;13.40;;;9.15;;
55114;SDS011;41010;53.252;5.786;2023-06-22T05:32:10;17.08;;;10.07;;
55114;SDS011;41010;53.252;5.786;2023-06-22T05:34:37;16.30;;;10.25;;
55114;SDS011;41010;53.252;5.786;2023-06-22T05:37:05;15.98;;;10.68;;
55114;SDS011;41010;53.252;5.786;2023-06-22T05:39:34;19.25;;;9.95;;
55114;SDS011;41010;53.252;5.786;2023-06-22T05:42:04;15.30;;;9.88;;
55114;SDS011;41010;53.252;5.786;2023-06-22T05:44:31;17.02;;;11.65;;
55114;SDS011;41010;53.252;5.786;2023-06-22T05:46:59;16.45;;;11.43;;
55114;SDS011;41010;53.252;5.786;2023-06-22T05:49:29;19.75;;;11.90;;
55114;SDS011;41010;53.252;5.786;2023-06-22T05:51:58;17.25;;;11.55;;
55114;SDS011;41010;53.252;5.786;2023-06-22T05:54:26;18.85;;;12.40;;
55114;SDS011;41010;53.252;5.786;2023-06-22T05:56:54;21.67;;;11.93;;
55114;SDS011;41010;53.252;5.786;2023-06-22T05:59:21;19.00;;;13.15;;
55114;SDS011;41010;53.252;5.786;2023-06-22T06:01:48;19.33;;;13.02;;
55114;SDS011;41010;53.252;5.786;2023-06-22T06:04:16;19.17;;;12.85;;
55114;SDS011;41010;53.252;5.786;2023-06-22T06:06:45;21.85;;;14.07;;
55114;SDS011;41010;53.252;5.786;2023-06-22T06:09:13;22.92;;;14.25;;
55114;SDS011;41010;53.252;5.786;2023-06-22T06:11:40;21.42;;;13.73;;
55114;SDS011;41010;53.252;5.786;2023-06-22T06:14:08;20.55;;;14.40;;
55114;SDS011;41010;53.252;5.786;2023-06-22T06:16:35;23.35;;;13.50;;
55114;SDS011;41010;53.252;5.786;2023-06-22T06:19:02;24.08;;;13.98;;
55114;SDS011;41010;53.252;5.786;2023-06-22T06:21:29;22.48;;;13.65;;
55114;SDS011;41010;53.252;5.786;2023-06-22T06:23:58;24.65;;;13.95;;
55114;SDS011;41010;53.252;5.786;2023-06-22T06:26:25;19.67;;;13.80;;
55114;SDS011;41010;53.252;5.786;2023-06-22T06:28:55;19.55;;;13.45;;
55114;SDS011;41010;53.252;5.786;2023-06-22T06:31:23;20.30;;;13.20;;
55114;SDS011;41010;53.252;5.786;2023-06-22T06:33:52;20.95;;;13.32;;
55114;SDS011;41010;53.252;5.786;2023-06-22T06:36:20;19.30;;;12.88;;
55114;SDS011;41010;53.252;5.786;2023-06-22T06:38:47;22.10;;;11.70;;
55114;SDS011;41010;53.252;5.786;2023-06-22T06:41:16;20.08;;;12.07;;
55114;SDS011;41010;53.252;5.786;2023-06-22T06:43:43;20.70;;;12.55;;
55114;SDS011;41010;53.252;5.786;2023-06-22T06:46:10;17.30;;;11.95;;
55114;SDS011;41010;53.252;5.786;2023-06-22T06:48:37;18.92;;;11.32;;
55114;SDS011;41010;53.252;5.786;2023-06-22T06:51:05;17.58;;;10.80;;
55114;SDS011;41010;53.252;5.786;2023-06-22T06:53:34;18.20;;;11.52;;
55114;SDS011;41010;53.252;5.786;2023-06-22T06:56:01;18.75;;;12.85;;
55114;SDS011;41010;53.252;5.786;2023-06-22T06:58:30;16.13;;;10.43;;
55114;SDS011;41010;53.252;5.786;2023-06-22T07:00:58;17.30;;;10.75;;
55114;SDS011;41010;53.252;5.786;2023-06-22T07:03:25;13.93;;;9.75;;
55114;SDS011;41010;53.252;5.786;2023-06-22T07:05:52;13.48;;;9.25;;
55114;SDS011;41010;53.252;5.786;2023-06-22T07:08:19;18.40;;;10.85;;
55114;SDS011;41010;53.252;5.786;2023-06-22T07:10:47;14.82;;;10.40;;
55114;SDS011;41010;53.252;5.786;2023-06-22T07:13:14;20.15;;;11.68;;
55114;SDS011;41010;53.252;5.786;2023-06-22T07:15:43;15.35;;;10.43;;
55114;SDS011;41010;53.252;5.786;2023-06-22T07:18:10;14.80;;;9.80;;
55114;SDS011;41010;53.252;5.786;2023-06-22T07:20:37;14.48;;;9.70;;
55114;SDS011;41010;53.252;5.786;2023-06-22T07:23:06;11.65;;;7.95;;
55114;SDS011;41010;53.252;5.786;2023-06-22T07:25:33;11.73;;;8.27;;
55114;SDS011;41010;53.252;5.786;2023-06-22T07:28:01;11.77;;;7.85;;
55114;SDS011;41010;53.252;5.786;2023-06-22T07:30:28;13.57;;;8.18;;
55114;SDS011;41010;53.252;5.786;2023-06-22T07:32:57;13.77;;;9.10;;
55114;SDS011;41010;53.252;5.786;2023-06-22T07:37:56;14.00;;;8.93;;
55114;SDS011;41010;53.252;5.786;2023-06-22T07:40:23;15.35;;;8.10;;
55114;SDS011;41010;53.252;5.786;2023-06-22T07:42:50;11.93;;;8.23;;
55114;SDS011;41010;53.252;5.786;2023-06-22T07:45:18;14.20;;;8.18;;
55114;SDS011;41010;53.252;5.786;2023-06-22T07:47:45;11.95;;;8.18;;
55114;SDS011;41010;53.252;5.786;2023-06-22T07:50:14;11.20;;;7.60;;
55114;SDS011;41010;53.252;5.786;2023-06-22T07:52:41;12.00;;;8.77;;
55114;SDS011;41010;53.252;5.786;2023-06-22T07:55:09;12.35;;;8.35;;
55114;SDS011;41010;53.252;5.786;2023-06-22T07:57:36;11.77;;;8.32;;
55114;SDS011;41010;53.252;5.786;2023-06-22T08:00:04;11.32;;;8.55;;
55114;SDS011;41010;53.252;5.786;2023-06-22T08:02:37;11.50;;;8.18;;
55114;SDS011;41010;53.252;5.786;2023-06-22T08:05:06;12.70;;;8.43;;
55114;SDS011;41010;53.252;5.786;2023-06-22T08:07:35;11.57;;;7.90;;
55114;SDS011;41010;53.252;5.786;2023-06-22T08:10:03;11.57;;;8.35;;
55114;SDS011;41010;53.252;5.786;2023-06-22T08:12:30;11.30;;;7.78;;
55114;SDS011;41010;53.252;5.786;2023-06-22T08:14:58;10.95;;;7.07;;
55114;SDS011;41010;53.252;5.786;2023-06-22T08:17:25;10.27;;;7.05;;
55114;SDS011;41010;53.252;5.786;2023-06-22T08:19:53;10.93;;;7.18;;
55114;SDS011;41010;53.252;5.786;2023-06-22T08:22:20;10.30;;;7.20;;
55114;SDS011;41010;53.252;5.786;2023-06-22T08:24:49;12.75;;;7.78;;
55114;SDS011;41010;53.252;5.786;2023-06-22T08:27:16;11.38;;;7.72;;
55114;SDS011;41010;53.252;5.786;2023-06-22T08:29:46;11.18;;;7.32;;
55114;SDS011;41010;53.252;5.786;2023-06-22T08:32:14;10.65;;;6.78;;
55114;SDS011;41010;53.252;5.786;2023-06-22T08:34:42;9.98;;;5.65;;
55114;SDS011;41010;53.252;5.786;2023-06-22T08:37:09;10.15;;;5.78;;
55114;SDS011;41010;53.252;5.786;2023-06-22T08:39:36;8.98;;;5.93;;
55114;SDS011;41010;53.252;5.786;2023-06-22T08:42:06;8.45;;;5.95;;
55114;SDS011;41010;53.252;5.786;2023-06-22T08:44:33;7.75;;;5.03;;
55114;SDS011;41010;53.252;5.786;2023-06-22T08:47:00;10.50;;;6.20;;
55114;SDS011;41010;53.252;5.786;2023-06-22T08:49:28;9.50;;;6.03;;
55114;SDS011;41010;53.252;5.786;2023-06-22T08:51:56;7.95;;;5.43;;
55114;SDS011;41010;53.252;5.786;2023-06-22T08:54:24;8.07;;;5.53;;
55114;SDS011;41010;53.252;5.786;2023-06-22T08:56:51;8.45;;;5.85;;
55114;SDS011;41010;53.252;5.786;2023-06-22T08:59:20;7.80;;;5.38;;
55114;SDS011;41010;53.252;5.786;2023-06-22T09:01:47;6.80;;;4.63;;
55114;SDS011;41010;53.252;5.786;2023-06-22T09:04:15;8.80;;;5.18;;
55114;SDS011;41010;53.252;5.786;2023-06-22T09:06:42;7.93;;;4.90;;
55114;SDS011;41010;53.252;5.786;2023-06-22T09:09:11;8.55;;;4.82;;
55114;SDS011;41010;53.252;5.786;2023-06-22T09:11:39;9.65;;;4.93;;
55114;SDS011;41010;53.252;5.786;2023-06-22T09:14:06;7.68;;;4.50;;
55114;SDS011;41010;53.252;5.786;2023-06-22T09:16:35;11.38;;;4.75;;
55114;SDS011;41010;53.252;5.786;2023-06-22T09:19:02;5.35;;;3.80;;
55114;SDS011;41010;53.252;5.786;2023-06-22T09:21:29;6.68;;;4.07;;
55114;SDS011;41010;53.252;5.786;2023-06-22T09:23:57;5.30;;;3.70;;
55114;SDS011;41010;53.252;5.786;2023-06-22T09:26:24;7.13;;;3.85;;
55114;SDS011;41010;53.252;5.786;2023-06-22T09:28:51;4.65;;;3.10;;
55114;SDS011;41010;53.252;5.786;2023-06-22T09:31:19;5.45;;;4.03;;
55114;SDS011;41010;53.252;5.786;2023-06-22T09:33:52;6.13;;;3.40;;
55114;SDS011;41010;53.252;5.786;2023-06-22T09:36:20;5.35;;;3.63;;
55114;SDS011;41010;53.252;5.786;2023-06-22T09:38:47;7.35;;;4.55;;
55114;SDS011;41010;53.252;5.786;2023-06-22T09:41:21;7.78;;;4.18;;
55114;SDS011;41010;53.252;5.786;2023-06-22T09:43:48;6.05;;;2.83;;
55114;SDS011;41010;53.252;5.786;2023-06-22T09:46:15;4.10;;;3.30;;
55114;SDS011;41010;53.252;5.786;2023-06-22T09:48:42;6.88;;;4.13;;
55114;SDS011;41010;53.252;5.786;2023-06-22T09:51:11;5.25;;;3.70;;
55114;SDS011;41010;53.252;5.786;2023-06-22T09:53:38;6.82;;;4.43;;
55114;SDS011;41010;53.252;5.786;2023-06-22T09:56:06;4.65;;;3.22;;
55114;SDS011;41010;53.252;5.786;2023-06-22T09:58:36;4.07;;;3.17;;
55114;SDS011;41010;53.252;5.786;2023-06-22T10:01:03;6.82;;;3.92;;
55114;SDS011;41010;53.252;5.786;2023-06-22T10:03:30;4.93;;;2.92;;
55114;SDS011;41010;53.252;5.786;2023-06-22T10:05:58;8.02;;;3.72;;
55114;SDS011;41010;53.252;5.786;2023-06-22T10:08:26;6.05;;;4.00;;
55114;SDS011;41010;53.252;5.786;2023-06-22T10:10:54;3.88;;;3.00;;
55114;SDS011;41010;53.252;5.786;2023-06-22T10:13:21;4.63;;;3.38;;
55114;SDS011;41010;53.252;5.786;2023-06-22T10:15:48;5.00;;;3.53;;
55114;SDS011;41010;53.252;5.786;2023-06-22T10:18:17;5.03;;;2.85;;
55114;SDS011;41010;53.252;5.786;2023-06-22T10:20:44;3.53;;;2.42;;
55114;SDS011;41010;53.252;5.786;2023-06-22T10:23:12;4.47;;;3.03;;
55114;SDS011;41010;53.252;5.786;2023-06-22T10:25:41;6.13;;;3.63;;
55114;SDS011;41010;53.252;5.786;2023-06-22T10:28:08;5.95;;;2.40;;
55114;SDS011;41010;53.252;5.786;2023-06-22T10:30:35;4.28;;;2.17;;
55114;SDS011;41010;53.252;5.786;2023-06-22T10:33:02;4.22;;;2.67;;
55114;SDS011;41010;53.252;5.786;2023-06-22T10:35:30;3.63;;;2.35;;
55114;SDS011;41010;53.252;5.786;2023-06-22T10:37:57;2.75;;;2.35;;
55114;SDS011;41010;53.252;5.786;2023-06-22T10:40:25;3.10;;;2.08;;
55114;SDS011;41010;53.252;5.786;2023-06-22T10:42:53;3.67;;;2.80;;
55114;SDS011;41010;53.252;5.786;2023-06-22T10:45:20;3.10;;;2.30;;
55114;SDS011;41010;53.252;5.786;2023-06-22T10:47:48;4.70;;;2.65;;
55114;SDS011;41010;53.252;5.786;2023-06-22T10:50:15;6.30;;;3.38;;
55114;SDS011;41010;53.252;5.786;2023-06-22T10:52:42;4.05;;;2.65;;
55114;SDS011;41010;53.252;5.786;2023-06-22T10:55:10;4.88;;;3.03;;
55114;SDS011;41010;53.252;5.786;2023-06-22T10:57:37;4.97;;;2.88;;
55114;SDS011;41010;53.252;5.786;2023-06-22T11:00:11;4.73;;;3.40;;
55114;SDS011;41010;53.252;5.786;2023-06-22T11:02:38;5.15;;;3.35;;
55114;SDS011;41010;53.252;5.786;2023-06-22T11:05:06;4.80;;;3.25;;
55114;SDS011;41010;53.252;5.786;2023-06-22T11:07:33;6.38;;;3.80;;
55114;SDS011;41010;53.252;5.786;2023-06-22T11:10:00;6.50;;;3.50;;
55114;SDS011;41010;53.252;5.786;2023-06-22T11:12:28;4.75;;;2.95;;
55114;SDS011;41010;53.252;5.786;2023-06-22T11:14:55;4.25;;;3.10;;
55114;SDS011;41010;53.252;5.786;2023-06-22T11:17:23;3.92;;;2.85;;
55114;SDS011;41010;53.252;5.786;2023-06-22T11:19:51;3.88;;;3.00;;
55114;SDS011;41010;53.252;5.786;2023-06-22T11:22:18;4.80;;;3.50;;
55114;SDS011;41010;53.252;5.786;2023-06-22T11:24:45;4.95;;;3.30;;
55114;SDS011;41010;53.252;5.786;2023-06-22T11:27:12;5.45;;;3.10;;
55114;SDS011;41010;53.252;5.786;2023-06-22T11:29:40;4.38;;;3.30;;
55114;SDS011;41010;53.252;5.786;2023-06-22T11:32:07;5.05;;;3.58;;
55114;SDS011;41010;53.252;5.786;2023-06-22T11:34:36;4.40;;;3.28;;
55114;SDS011;41010;53.252;5.786;2023-06-22T11:37:03;5.32;;;3.47;;
55114;SDS011;41010;53.252;5.786;2023-06-22T11:39:30;8.05;;;3.40;;
55114;SDS011;41010;53.252;5.786;2023-06-22T11:41:58;4.00;;;3.03;;
55114;SDS011;41010;53.252;5.786;2023-06-22T11:44:25;4.18;;;2.70;;
55114;SDS011;41010;53.252;5.786;2023-06-22T11:46:52;3.25;;;2.75;;
55114;SDS011;41010;53.252;5.786;2023-06-22T11:49:19;3.97;;;2.80;;
55114;SDS011;41010;53.252;5.786;2023-06-22T11:51:48;3.40;;;2.60;;
55114;SDS011;41010;53.252;5.786;2023-06-22T11:54:15;3.28;;;2.70;;
55114;SDS011;41010;53.252;5.786;2023-06-22T11:56:42;2.92;;;2.30;;
55114;SDS011;41010;53.252;5.786;2023-06-22T11:59:10;3.75;;;3.17;;
55114;SDS011;41010;53.252;5.786;2023-06-22T12:01:37;2.85;;;1.80;;
55114;SDS011;41010;53.252;5.786;2023-06-22T12:04:04;2.80;;;2.05;;
55114;SDS011;41010;53.252;5.786;2023-06-22T12:06:32;2.58;;;2.08;;
55114;SDS011;41010;53.252;5.786;2023-06-22T12:09:03;2.78;;;2.25;;
55114;SDS011;41010;53.252;5.786;2023-06-22T12:11:30;3.83;;;2.40;;
55114;SDS011;41010;53.252;5.786;2023-06-22T12:13:57;2.22;;;2.03;;
55114;SDS011;41010;53.252;5.786;2023-06-22T12:16:26;2.70;;;1.92;;
55114;SDS011;41010;53.252;5.786;2023-06-22T12:18:54;2.50;;;2.05;;
55114;SDS011;41010;53.252;5.786;2023-06-22T12:21:21;3.28;;;2.58;;
55114;SDS011;41010;53.252;5.786;2023-06-22T12:23:48;2.92;;;1.92;;
55114;SDS011;41010;53.252;5.786;2023-06-22T12:26:17;5.13;;;2.13;;
55114;SDS011;41010;53.252;5.786;2023-06-22T12:28:44;2.53;;;1.70;;
55114;SDS011;41010;53.252;5.786;2023-06-22T12:31:12;1.63;;;1.50;;
55114;SDS011;41010;53.252;5.786;2023-06-22T12:33:39;2.20;;;1.60;;
55114;SDS011;41010;53.252;5.786;2023-06-22T12:36:07;1.65;;;1.30;;
55114;SDS011;41010;53.252;5.786;2023-06-22T12:38:34;2.42;;;1.63;;
55114;SDS011;41010;53.252;5.786;2023-06-22T12:41:02;1.70;;;1.20;;
55114;SDS011;41010;53.252;5.786;2023-06-22T12:43:30;1.83;;;1.50;;
55114;SDS011;41010;53.252;5.786;2023-06-22T12:45:57;2.00;;;1.67;;
55114;SDS011;41010;53.252;5.786;2023-06-22T12:48:25;2.05;;;1.40;;
55114;SDS011;41010;53.252;5.786;2023-06-22T12:50:52;2.15;;;1.52;;
55114;SDS011;41010;53.252;5.786;2023-06-22T12:53:20;3.90;;;1.33;;
55114;SDS011;41010;53.252;5.786;2023-06-22T12:55:48;1.60;;;1.40;;
55114;SDS011;41010;53.252;5.786;2023-06-22T12:58:15;1.38;;;1.27;;
55114;SDS011;41010;53.252;5.786;2023-06-22T13:00:44;1.60;;;1.40;;
55114;SDS011;41010;53.252;5.786;2023-06-22T13:03:11;3.35;;;1.30;;
55114;SDS011;41010;53.252;5.786;2023-06-22T13:05:39;1.45;;;1.30;;
55114;SDS011;41010;53.252;5.786;2023-06-22T13:08:06;1.95;;;1.20;;
55114;SDS011;41010;53.252;5.786;2023-06-22T13:10:34;2.00;;;1.50;;
55114;SDS011;41010;53.252;5.786;2023-06-22T13:13:01;2.35;;;1.40;;
55114;SDS011;41010;53.252;5.786;2023-06-22T13:15:28;2.28;;;1.30;;
